CAL220 RCKH-RCSS
Flight info
| Callsign | CAL220 |
|---|---|
| Flight time | 0h 34m |
| Altitude | 19000 |
| Route | TNN1H TNN W4 HLG HLG1E |
| Aircraft | A359/H-SDE2E3GHIJ3J4J5LM1ORWXY/LB1D1 |
Departure
| Time | 2026-05-01 14:21 |
|---|---|
| Airport | Kaohsiung International Airport (RCKH) |
Arrival
| Time | 2026-05-01 14:56 |
|---|---|
| Airport | Taipei Songshan International Airport (RCSS) |
| Time | Latitude | Longitude | Altitude | Speed | Heading |
|---|---|---|---|---|---|
| 2026-05-01 14:01 | 22.57332 | 120.33849 | 43 ft | 0 kts | 91° |
| 2026-05-01 14:09 | 22.57332 | 120.33828 | 42 ft | 4 kts | 92° |
| 2026-05-01 14:09 | 22.57334 | 120.33799 | 41 ft | 4 kts | 97° |
| 2026-05-01 14:09 | 22.57338 | 120.33781 | 42 ft | 2 kts | 130° |
| 2026-05-01 14:09 | 22.57349 | 120.33773 | 39 ft | 3 kts | 172° |
| 2026-05-01 14:10 | 22.57373 | 120.33773 | 41 ft | 4 kts | 181° |
| 2026-05-01 14:10 | 22.57394 | 120.33770 | 42 ft | 3 kts | 153° |
| 2026-05-01 14:10 | 22.57409 | 120.33757 | 42 ft | 3 kts | 122° |
| 2026-05-01 14:10 | 22.57416 | 120.33740 | 40 ft | 2 kts | 104° |
| 2026-05-01 14:11 | 22.57418 | 120.33728 | 45 ft | 2 kts | 97° |
| 2026-05-01 14:11 | 22.57419 | 120.33718 | 44 ft | 0 kts | 93° |
| 2026-05-01 14:15 | 22.57419 | 120.33731 | 44 ft | 5 kts | 93° |
| 2026-05-01 14:16 | 22.57415 | 120.33796 | 38 ft | 12 kts | 93° |
| 2026-05-01 14:16 | 22.57413 | 120.33903 | 44 ft | 17 kts | 91° |
| 2026-05-01 14:16 | 22.57409 | 120.34037 | 44 ft | 12 kts | 92° |
| 2026-05-01 14:16 | 22.57453 | 120.34117 | 45 ft | 15 kts | 17° |
| 2026-05-01 14:17 | 22.57541 | 120.34133 | 45 ft | 11 kts | 29° |
| 2026-05-01 14:17 | 22.57564 | 120.34221 | 45 ft | 15 kts | 92° |
| 2026-05-01 14:17 | 22.57560 | 120.34358 | 45 ft | 22 kts | 91° |
| 2026-05-01 14:17 | 22.57554 | 120.34540 | 45 ft | 26 kts | 92° |
| 2026-05-01 14:18 | 22.57547 | 120.34745 | 45 ft | 29 kts | 92° |
| 2026-05-01 14:18 | 22.57540 | 120.34974 | 44 ft | 32 kts | 91° |
| 2026-05-01 14:18 | 22.57532 | 120.35220 | 44 ft | 34 kts | 92° |
| 2026-05-01 14:18 | 22.57524 | 120.35483 | 44 ft | 36 kts | 92° |
| 2026-05-01 14:19 | 22.57517 | 120.35751 | 44 ft | 36 kts | 91° |
| 2026-05-01 14:19 | 22.57509 | 120.36017 | 45 ft | 35 kts | 91° |
| 2026-05-01 14:19 | 22.57503 | 120.36240 | 45 ft | 24 kts | 92° |
| 2026-05-01 14:19 | 22.57498 | 120.36392 | 45 ft | 18 kts | 92° |
| 2026-05-01 14:20 | 22.57521 | 120.36507 | 45 ft | 16 kts | 39° |
| 2026-05-01 14:20 | 22.57665 | 120.36381 | 46 ft | 26 kts | 272° |
| 2026-05-01 14:20 | 22.57676 | 120.35989 | 45 ft | 88 kts | 272° |
| 2026-05-01 14:21 | 22.57704 | 120.35074 | 44 ft | 153 kts | 271° |
| 2026-05-01 14:21 | 22.57716 | 120.33830 | 586 ft | 168 kts | 272° |
| 2026-05-01 14:21 | 22.57748 | 120.32610 | 1414 ft | 165 kts | 272° |
| 2026-05-01 14:22 | 22.57845 | 120.29889 | 2035 ft | 200 kts | 271° |
| 2026-05-01 14:22 | 22.57896 | 120.28324 | 2316 ft | 217 kts | 271° |
| 2026-05-01 14:22 | 22.57950 | 120.26612 | 2600 ft | 239 kts | 271° |
| 2026-05-01 14:22 | 22.58009 | 120.24726 | 2878 ft | 260 kts | 271° |
| 2026-05-01 14:23 | 22.58072 | 120.22732 | 3453 ft | 268 kts | 271° |
| 2026-05-01 14:23 | 22.58168 | 120.20708 | 4118 ft | 271 kts | 275° |
| 2026-05-01 14:23 | 22.58735 | 120.18749 | 4824 ft | 275 kts | 298° |
| 2026-05-01 14:23 | 22.60075 | 120.17276 | 5503 ft | 280 kts | 328° |
| 2026-05-01 14:24 | 22.61933 | 120.16656 | 6183 ft | 283 kts | 356° |
| 2026-05-01 14:24 | 22.63912 | 120.16723 | 6819 ft | 287 kts | 4° |
| 2026-05-01 14:24 | 22.65912 | 120.16913 | 7387 ft | 290 kts | 4° |
| 2026-05-01 14:24 | 22.67907 | 120.17097 | 7964 ft | 293 kts | 3° |
| 2026-05-01 14:25 | 22.69953 | 120.17272 | 8552 ft | 296 kts | 2° |
| 2026-05-01 14:25 | 22.72013 | 120.17439 | 9159 ft | 299 kts | 2° |
| 2026-05-01 14:25 | 22.74102 | 120.17603 | 9774 ft | 302 kts | 1° |
| 2026-05-01 14:25 | 22.76213 | 120.17767 | 10277 ft | 308 kts | 1° |
| 2026-05-01 14:26 | 22.78400 | 120.17932 | 10527 ft | 322 kts | 1° |
| 2026-05-01 14:26 | 22.83079 | 120.18286 | 10950 ft | 349 kts | 1° |
| 2026-05-01 14:26 | 22.85549 | 120.18474 | 11174 ft | 361 kts | 1° |
| 2026-05-01 14:27 | 22.88044 | 120.18666 | 11523 ft | 366 kts | 1° |
| 2026-05-01 14:27 | 22.90592 | 120.18862 | 11970 ft | 369 kts | 1° |
| 2026-05-01 14:27 | 22.93165 | 120.19060 | 12422 ft | 371 kts | 1° |
| 2026-05-01 14:28 | 22.98340 | 120.19456 | 13330 ft | 374 kts | 1° |
| 2026-05-01 14:28 | 23.00944 | 120.19655 | 13757 ft | 376 kts | 1° |
| 2026-05-01 14:28 | 23.03569 | 120.19855 | 14146 ft | 379 kts | 0° |
| 2026-05-01 14:28 | 23.06212 | 120.20057 | 14506 ft | 381 kts | 0° |
| 2026-05-01 14:29 | 23.08868 | 120.20260 | 14861 ft | 384 kts | 0° |
| 2026-05-01 14:29 | 23.11538 | 120.20466 | 15229 ft | 386 kts | 0° |
| 2026-05-01 14:30 | 23.19473 | 120.22539 | 16299 ft | 400 kts | 15° |
| 2026-05-01 14:30 | 23.22108 | 120.23543 | 16655 ft | 403 kts | 16° |
| 2026-05-01 14:30 | 23.24753 | 120.24569 | 17024 ft | 405 kts | 16° |
| 2026-05-01 14:31 | 23.30111 | 120.26607 | 17731 ft | 409 kts | 15° |
| 2026-05-01 14:31 | 23.32814 | 120.27607 | 18096 ft | 412 kts | 14° |
| 2026-05-01 14:31 | 23.35532 | 120.28601 | 18423 ft | 414 kts | 14° |
| 2026-05-01 14:31 | 23.38276 | 120.29598 | 18733 ft | 416 kts | 14° |
| 2026-05-01 14:32 | 23.41032 | 120.30598 | 18968 ft | 418 kts | 14° |
| 2026-05-01 14:32 | 23.43791 | 120.31596 | 19020 ft | 426 kts | 14° |
| 2026-05-01 14:32 | 23.46621 | 120.32622 | 19023 ft | 429 kts | 14° |
| 2026-05-01 14:32 | 23.49448 | 120.33650 | 19021 ft | 429 kts | 14° |
| 2026-05-01 14:33 | 23.52292 | 120.34687 | 19024 ft | 429 kts | 15° |
| 2026-05-01 14:33 | 23.55122 | 120.35719 | 19025 ft | 429 kts | 15° |
| 2026-05-01 14:33 | 23.57956 | 120.36754 | 19025 ft | 428 kts | 15° |
| 2026-05-01 14:33 | 23.60781 | 120.37788 | 19026 ft | 428 kts | 15° |
| 2026-05-01 14:34 | 23.63608 | 120.38823 | 19029 ft | 428 kts | 15° |
| 2026-05-01 14:34 | 23.66431 | 120.39849 | 19024 ft | 428 kts | 15° |
| 2026-05-01 14:34 | 23.69258 | 120.40874 | 19026 ft | 428 kts | 15° |
| 2026-05-01 14:34 | 23.72046 | 120.41885 | 19027 ft | 427 kts | 15° |
| 2026-05-01 14:35 | 23.74867 | 120.42909 | 19026 ft | 427 kts | 15° |
| 2026-05-01 14:35 | 23.77687 | 120.43935 | 19026 ft | 427 kts | 15° |
| 2026-05-01 14:35 | 23.80507 | 120.44961 | 19026 ft | 427 kts | 15° |
| 2026-05-01 14:35 | 23.83328 | 120.45989 | 19025 ft | 427 kts | 15° |
| 2026-05-01 14:36 | 23.86150 | 120.47019 | 19024 ft | 427 kts | 15° |
| 2026-05-01 14:36 | 23.88963 | 120.48046 | 19023 ft | 426 kts | 15° |
| 2026-05-01 14:36 | 23.91780 | 120.49076 | 19024 ft | 426 kts | 15° |
| 2026-05-01 14:36 | 23.94592 | 120.50111 | 19029 ft | 426 kts | 15° |
| 2026-05-01 14:37 | 23.97407 | 120.51146 | 19037 ft | 426 kts | 15° |
| 2026-05-01 14:37 | 24.00222 | 120.52182 | 19038 ft | 426 kts | 15° |
| 2026-05-01 14:37 | 24.03027 | 120.53214 | 19043 ft | 426 kts | 15° |
| 2026-05-01 14:37 | 24.05799 | 120.54235 | 19047 ft | 425 kts | 15° |
| 2026-05-01 14:38 | 24.08611 | 120.55271 | 19049 ft | 425 kts | 15° |
| 2026-05-01 14:38 | 24.10770 | 120.56062 | 19048 ft | 425 kts | 15° |
| 2026-05-01 14:38 | 24.13575 | 120.57089 | 19051 ft | 425 kts | 15° |
| 2026-05-01 14:38 | 24.16378 | 120.58116 | 19053 ft | 425 kts | 15° |
| 2026-05-01 14:39 | 24.19190 | 120.59152 | 19055 ft | 425 kts | 15° |
| 2026-05-01 14:39 | 24.21999 | 120.60183 | 19053 ft | 425 kts | 15° |
| 2026-05-01 14:39 | 24.24801 | 120.61211 | 19058 ft | 425 kts | 15° |
| 2026-05-01 14:39 | 24.27603 | 120.62240 | 19058 ft | 425 kts | 15° |
| 2026-05-01 14:40 | 24.30405 | 120.63271 | 19056 ft | 425 kts | 15° |
| 2026-05-01 14:40 | 24.33166 | 120.64288 | 19053 ft | 425 kts | 15° |
| 2026-05-01 14:40 | 24.35968 | 120.65320 | 19056 ft | 425 kts | 15° |
| 2026-05-01 14:40 | 24.38772 | 120.66354 | 19056 ft | 425 kts | 15° |
| 2026-05-01 14:41 | 24.41579 | 120.67390 | 19018 ft | 423 kts | 15° |
| 2026-05-01 14:41 | 24.44359 | 120.68417 | 18463 ft | 420 kts | 15° |
| 2026-05-01 14:41 | 24.47121 | 120.69437 | 17253 ft | 415 kts | 15° |
| 2026-05-01 14:41 | 24.49856 | 120.70447 | 15525 ft | 416 kts | 15° |
| 2026-05-01 14:42 | 24.52600 | 120.71460 | 14215 ft | 411 kts | 16° |
| 2026-05-01 14:42 | 24.55197 | 120.72587 | 13693 ft | 397 kts | 25° |
| 2026-05-01 14:42 | 24.57412 | 120.74376 | 13094 ft | 398 kts | 43° |
| 2026-05-01 14:42 | 24.59306 | 120.76592 | 12462 ft | 396 kts | 47° |
| 2026-05-01 14:43 | 24.61123 | 120.78821 | 11852 ft | 394 kts | 47° |
| 2026-05-01 14:43 | 24.62952 | 120.81056 | 11266 ft | 392 kts | 47° |
| 2026-05-01 14:43 | 24.64748 | 120.83240 | 11109 ft | 377 kts | 47° |
| 2026-05-01 14:43 | 24.66476 | 120.85335 | 10999 ft | 361 kts | 47° |
| 2026-05-01 14:44 | 24.68130 | 120.87338 | 10887 ft | 347 kts | 47° |
| 2026-05-01 14:44 | 24.71270 | 120.91135 | 10600 ft | 325 kts | 47° |
| 2026-05-01 14:44 | 24.72773 | 120.92952 | 10355 ft | 319 kts | 47° |
| 2026-05-01 14:45 | 24.74267 | 120.94758 | 9975 ft | 319 kts | 47° |
| 2026-05-01 14:45 | 24.77233 | 120.98345 | 9252 ft | 315 kts | 48° |
| 2026-05-01 14:45 | 24.78703 | 121.00123 | 8910 ft | 313 kts | 48° |
| 2026-05-01 14:46 | 24.80165 | 121.01894 | 8569 ft | 311 kts | 48° |
| 2026-05-01 14:46 | 24.83040 | 121.05376 | 7911 ft | 307 kts | 48° |
| 2026-05-01 14:46 | 24.84473 | 121.07112 | 7568 ft | 306 kts | 48° |
| 2026-05-01 14:47 | 24.85900 | 121.08842 | 7256 ft | 304 kts | 48° |
| 2026-05-01 14:47 | 24.87314 | 121.10559 | 6925 ft | 301 kts | 48° |
| 2026-05-01 14:47 | 24.88720 | 121.12263 | 6593 ft | 300 kts | 49° |
| 2026-05-01 14:48 | 24.91502 | 121.15644 | 5941 ft | 295 kts | 48° |
| 2026-05-01 14:48 | 24.92877 | 121.17316 | 5616 ft | 293 kts | 48° |
| 2026-05-01 14:48 | 24.95600 | 121.20628 | 5004 ft | 289 kts | 48° |
| 2026-05-01 14:49 | 24.98317 | 121.23808 | 4385 ft | 285 kts | 46° |
| 2026-05-01 14:49 | 25.01039 | 121.26958 | 3774 ft | 281 kts | 46° |
| 2026-05-01 14:50 | 25.02821 | 121.29032 | 3513 ft | 274 kts | 46° |
| 2026-05-01 14:50 | 25.06059 | 121.32810 | 3506 ft | 236 kts | 47° |
| 2026-05-01 14:51 | 25.07124 | 121.34142 | 3413 ft | 227 kts | 56° |
| 2026-05-01 14:51 | 25.07643 | 121.37367 | 3018 ft | 210 kts | 100° |
| 2026-05-01 14:52 | 25.07478 | 121.40453 | 2434 ft | 194 kts | 93° |
| 2026-05-01 14:52 | 25.07439 | 121.41871 | 2162 ft | 178 kts | 96° |
| 2026-05-01 14:52 | 25.07340 | 121.44408 | 1728 ft | 154 kts | 96° |
| 2026-05-01 14:53 | 25.07302 | 121.45546 | 1512 ft | 142 kts | 96° |
| 2026-05-01 14:53 | 25.07266 | 121.46582 | 1359 ft | 131 kts | 96° |
| 2026-05-01 14:53 | 25.07229 | 121.47563 | 1191 ft | 128 kts | 94° |
| 2026-05-01 14:53 | 25.07194 | 121.48552 | 1026 ft | 131 kts | 93° |
| 2026-05-01 14:54 | 25.07162 | 121.49553 | 824 ft | 129 kts | 94° |
| 2026-05-01 14:54 | 25.07113 | 121.50531 | 682 ft | 129 kts | 94° |
| 2026-05-01 14:54 | 25.07083 | 121.51532 | 511 ft | 130 kts | 91° |
| 2026-05-01 14:54 | 25.07056 | 121.52515 | 305 ft | 128 kts | 91° |
| 2026-05-01 14:55 | 25.07024 | 121.53502 | 143 ft | 129 kts | 93° |
| 2026-05-01 14:55 | 25.06987 | 121.54491 | 37 ft | 126 kts | 93° |
| 2026-05-01 14:55 | 25.06981 | 121.54660 | 35 ft | 122 kts | 93° |
| 2026-05-01 14:55 | 25.06962 | 121.55095 | 34 ft | 92 kts | 92° |
| 2026-05-01 14:56 | 25.06952 | 121.55469 | 34 ft | 10 kts | 91° |